Time;durP1;ratioP1;P1;durP2;ratioP2;P2;SDS_P1;SDS_P2;PMS_P1;PMS_P2;Temp;Humidity;BMP_temperature;BMP_pressure;BME280_temperature;BME280_humidity;BME280_pressure;Samples;Min_cycle;Max_cycle;Signal;HPM_P1;HPM_P2
2022/01/23 00:00:16;;;;;;;;;;;;;;;-142.75;100.00;79518.19;5013606;28;20060;-69
2022/01/23 00:02:42;;;;;;;9.20;5.07;;;;;;;-142.75;100.00;79504.41;5029886;28;19967;-70
2022/01/23 00:05:08;;;;;;;8.77;5.20;;;;;;;-142.75;100.00;79498.47;5029506;28;20025;-70
2022/01/23 00:07:34;;;;;;;13.67;5.67;;;;;;;-142.75;100.00;79496.50;5031070;28;20037;-70
2022/01/23 00:10:01;;;;;;;12.48;6.07;;;;;;;-142.75;100.00;79502.44;5029523;28;20067;-69
2022/01/23 00:12:28;;;;;;;10.83;5.03;;;;;;;-142.75;100.00;79498.47;5029691;28;20052;-69
2022/01/23 00:17:38;;;;;;;11.40;5.20;;;;;;;-142.75;100.00;79492.56;5030449;28;20097;-69
2022/01/23 00:20:07;;;;;;;11.38;5.45;;;;;;;-142.75;100.00;79500.47;5041454;28;20037;-70
2022/01/23 00:22:44;;;;;;;9.27;4.73;;;;;;;-142.75;100.00;79510.31;5050663;28;20025;-70
2022/01/23 00:30:41;;;;;;;11.87;6.53;;;;;;;-142.75;100.00;79512.28;5028595;28;20037;-70
2022/01/23 00:33:08;;;;;;;13.30;6.10;;;;;;;-142.75;100.00;79508.34;5029561;28;20522;-70
2022/01/23 00:35:35;;;;;;;13.10;6.27;;;;;;;-142.75;100.00;79502.44;5045281;28;20029;-69
2022/01/23 00:38:03;;;;;;;13.00;6.17;;;;;;;-142.75;100.00;79502.44;5050129;28;20033;-70
2022/01/23 00:40:30;;;;;;;11.77;6.27;;;;;;;-142.75;100.00;79502.44;5035394;28;20398;-69
2022/01/23 00:42:58;;;;;;;10.57;6.10;;;;;;;-142.75;100.00;79500.47;5029350;28;20034;-71
2022/01/23 00:47:58;;;;;;;14.57;7.13;;;;;;;-142.75;100.00;79496.50;5029434;28;20029;-69
2022/01/23 00:50:23;;;;;;;10.23;6.83;;;;;;;-142.75;100.00;79488.63;5029369;28;20017;-70
2022/01/23 00:52:49;;;;;;;;;;;;;;;-142.75;100.00;79484.69;5010663;23;1049751;-68
2022/01/23 00:55:14;;;;;;;16.63;7.33;;;;;;;-142.75;100.00;79480.75;5047445;28;19920;-68
2022/01/23 00:57:39;;;;;;;10.00;6.87;;;;;;;-142.75;100.00;79472.88;5049191;28;20037;-67
2022/01/23 01:00:07;;;;;;;11.60;7.60;;;;;;;-142.75;100.00;79472.88;5050319;28;20287;-68
2022/01/23 01:02:33;;;;;;;17.07;7.63;;;;;;;-142.75;100.00;79472.88;5030266;28;20357;-67
2022/01/23 01:04:58;;;;;;;15.52;7.35;;;;;;;-142.75;100.00;79474.84;5030284;28;20470;-67
2022/01/23 01:07:24;;;;;;;12.20;7.60;;;;;;;-142.75;100.00;79482.72;5031083;28;20108;-67
2022/01/23 01:09:52;;;;;;;15.40;8.45;;;;;;;-142.75;100.00;79484.69;5030247;28;20026;-68
2022/01/23 01:12:21;;;;;;;13.68;7.15;;;;;;;-142.75;100.00;79490.59;5030210;28;20029;-67
2022/01/23 01:36:05;;;;;;;15.60;8.70;;;;;;;-142.75;100.00;79498.47;5029944;28;20033;-67
2022/01/23 01:38:31;;;;;;;13.95;7.82;;;;;;;-142.75;100.00;79500.47;5030027;28;20080;-68
2022/01/23 01:40:57;;;;;;;;;;;;;;;-142.75;100.00;79506.38;5030296;28;20160;-68
2022/01/23 01:43:22;;;;;;;12.60;8.47;;;;;;;-142.75;100.00;79510.31;5029122;28;19913;-69
2022/01/23 01:45:47;;;;;;;14.60;8.73;;;;;;;-142.75;100.00;79520.16;5029955;28;20022;-67
2022/01/23 01:48:15;;;;;;;14.90;9.27;;;;;;;-142.75;100.00;79533.94;5029454;28;20104;-68
2022/01/23 01:50:45;;;;;;;18.90;9.27;;;;;;;-142.75;100.00;79545.75;5029801;28;20087;-68
2022/01/23 01:53:11;;;;;;;16.33;9.37;;;;;;;-142.75;100.00;79535.91;5029637;28;20021;-69
2022/01/23 01:55:43;;;;;;;14.90;8.97;;;;;;;-142.75;100.00;79528.03;5029578;28;20033;-67
2022/01/23 01:58:32;;;;;;;16.20;8.80;;;;;;;-142.75;100.00;79533.94;5011775;28;20510;-68
2022/01/23 02:00:58;;;;;;;22.00;9.93;;;;;;;-142.75;100.00;79518.19;5029459;28;20047;-68
2022/01/23 02:08:54;;;;;;;14.93;8.90;;;;;;;-142.75;100.00;79528.03;5029725;28;20043;-67
2022/01/23 02:12:14;;;;;;;15.33;9.23;;;;;;;-142.75;100.00;79516.22;5029509;28;20617;-68
2022/01/23 02:14:34;;;;;;;15.30;8.87;;;;;;;-142.75;100.00;79514.25;5021094;28;20048;-66
2022/01/23 02:52:49;;;;;;;19.53;10.90;;;;;;;-142.75;100.00;79484.69;5033433;28;20473;-67
2022/01/23 02:55:26;;;;;;;18.27;10.80;;;;;;;-142.75;100.00;79490.59;5031536;28;20036;-68
2022/01/23 02:57:58;;;;;;;22.23;11.27;;;;;;;-142.75;100.00;79492.56;5032703;28;20049;-66
2022/01/23 03:00:31;;;;;;;19.83;9.93;;;;;;;-142.75;100.00;79486.66;5015257;28;20030;-68
2022/01/23 03:03:02;;;;;;;16.30;10.80;;;;;;;-142.75;100.00;79480.75;5032646;28;20036;-68
2022/01/23 03:08:05;;;;;;;18.07;10.47;;;;;;;-142.75;100.00;79496.50;5032913;28;20043;-68
2022/01/23 03:11:01;;;;;;;20.30;11.33;;;;;;;-142.75;100.00;79492.56;5032677;28;20087;-68
2022/01/23 03:13:41;;;;;;;20.63;10.50;;;;;;;-142.75;100.00;79476.81;5031302;28;20120;-68
2022/01/23 03:26:52;;;;;;;19.50;10.83;;;;;;;-142.75;100.00;79478.78;5032778;28;20072;-67
2022/01/23 03:29:21;;;;;;;19.67;10.57;;;;;;;-142.75;100.00;79474.84;5032114;28;20025;-67
2022/01/23 03:34:20;;;;;;;20.70;11.13;;;;;;;-142.75;100.00;79484.69;5032329;28;20079;-68
2022/01/23 03:36:46;;;;;;;21.20;10.30;;;;;;;-142.75;100.00;79476.81;5032622;28;20048;-68
2022/01/23 03:39:11;;;;;;;20.02;10.80;;;;;;;-142.75;100.00;79492.56;5032280;28;20483;-68
2022/01/23 03:41:39;;;;;;;19.65;10.85;;;;;;;-142.75;100.00;79488.63;5031993;28;20033;-67
2022/01/23 03:44:07;;;;;;;17.93;10.93;;;;;;;-142.75;100.00;79498.47;5030135;28;20022;-68
2022/01/23 03:47:01;;;;;;;19.67;10.90;;;;;;;-142.75;100.00;79508.34;5014545;28;20368;-67
2022/01/23 03:49:32;;;;;;;19.70;11.63;;;;;;;-142.75;100.00;79496.50;5031655;28;20558;-68
2022/01/23 03:52:00;;;;;;;22.90;11.48;;;;;;;-142.75;100.00;79500.47;5031999;28;20079;-68
2022/01/23 03:54:26;;;;;;;22.47;12.33;;;;;;;-142.75;100.00;79498.47;5031909;28;20501;-68
2022/01/23 03:56:53;;;;;;;19.10;10.33;;;;;;;-142.75;100.00;79486.66;5014196;28;20372;-67
2022/01/23 03:59:18;;;;;;;;;;;;;;;-142.75;100.00;79488.63;5031929;28;20479;-68
2022/01/23 04:01:43;;;;;;;20.77;11.73;;;;;;;-142.75;100.00;79484.69;5031498;28;19924;-68
2022/01/23 04:04:24;;;;;;;21.88;11.50;;;;;;;-142.75;100.00;79482.72;5013937;28;20075;-67
2022/01/23 04:06:49;;;;;;;22.20;12.17;;;;;;;-142.75;100.00;79484.69;5031927;28;20033;-68
2022/01/23 04:09:15;;;;;;;20.57;12.13;;;;;;;-142.75;100.00;79482.72;5013835;28;20017;-68
2022/01/23 04:11:40;;;;;;;23.75;12.00;;;;;;;-142.75;100.00;79478.78;5031619;28;20468;-67
2022/01/23 04:14:09;;;;;;;25.00;11.30;;;;;;;-142.75;100.00;79480.75;5031492;28;20088;-66
2022/01/23 04:17:17;;;;;;;23.10;10.97;;;;;;;-142.75;100.00;79486.66;5031476;28;20276;-67
2022/01/23 04:19:54;;;;;;;17.50;10.93;;;;;;;-142.75;100.00;79488.63;5030814;28;20032;-67
2022/01/23 05:01:14;;;;;;;19.97;11.00;;;;;;;-142.75;100.00;79545.75;5030815;28;20067;-68
2022/01/23 05:06:27;;;;;;;18.77;11.43;;;;;;;-142.75;100.00;79535.91;5030823;28;20034;-67
2022/01/23 05:08:52;;;;;;;23.53;11.23;;;;;;;-142.75;100.00;79547.72;5030754;28;20032;-67
2022/01/23 05:11:18;;;;;;;18.88;10.50;;;;;;;-142.75;100.00;79543.78;5012804;28;20017;-68
2022/01/23 05:13:44;;;;;;;22.25;11.55;;;;;;;-142.75;100.00;79543.78;5030207;28;20025;-67
2022/01/23 05:16:11;;;;;;;17.15;10.77;;;;;;;-142.75;100.00;79543.78;5030327;28;20104;-66
2022/01/23 05:18:37;;;;;;;18.13;11.07;;;;;;;-142.75;100.00;79555.63;5029919;28;20075;-67
2022/01/23 05:21:21;;;;;;;18.07;10.93;;;;;;;-142.75;100.00;79553.63;5012511;28;20057;-67
2022/01/23 05:23:46;;;;;;;22.40;10.87;;;;;;;-142.75;100.00;79551.69;5030307;28;20296;-68
2022/01/23 05:26:12;;;;;;;23.23;12.65;;;;;;;-142.75;100.00;79567.44;5030239;28;20194;-68
2022/01/23 05:28:37;;;;;;;21.40;11.52;;;;;;;-142.75;100.00;79569.41;5029847;28;20021;-68
2022/01/23 05:31:03;;;;;;;20.48;11.43;;;;;;;-142.75;100.00;79569.41;5030158;28;20096;-67
2022/01/23 05:33:28;;;;;;;23.83;11.50;;;;;;;-142.75;100.00;79555.63;5029994;28;20039;-67
2022/01/23 05:35:53;;;;;;;21.42;11.35;;;;;;;-142.75;100.00;79555.63;5030003;28;20033;-67
2022/01/23 05:38:18;;;;;;;20.52;10.70;;;;;;;-142.75;100.00;79567.44;5030288;28;20028;-68
2022/01/23 05:40:44;;;;;;;18.63;11.13;;;;;;;-142.75;100.00;79565.47;5029950;28;20441;-69
2022/01/23 05:43:10;;;;;;;23.63;12.38;;;;;;;-142.75;100.00;79573.34;5029147;28;20283;-68
2022/01/23 05:45:41;;;;;;;21.92;11.88;;;;;;;-142.75;100.00;79573.34;5029993;28;20051;-68
2022/01/23 05:48:06;;;;;;;19.37;11.77;;;;;;;-142.75;100.00;79567.44;5029484;28;20658;-67
2022/01/23 05:50:31;;;;;;;20.17;12.40;;;;;;;-142.75;100.00;79559.56;5029759;28;20022;-68
2022/01/23 05:52:56;;;;;;;21.23;11.60;;;;;;;-142.75;100.00;79557.59;5029651;28;20030;-68
2022/01/23 05:55:22;;;;;;;22.33;12.60;;;;;;;-142.75;100.00;79549.69;5030082;28;20403;-68
2022/01/23 05:57:47;;;;;;;24.95;13.50;;;;;;;-142.75;100.00;79555.63;5011468;28;20026;-66
2022/01/23 06:00:13;;;;;;;21.17;12.07;;;;;;;-142.75;100.00;79559.56;5029537;28;20487;-67
2022/01/23 06:02:39;;;;;;;25.13;12.85;;;;;;;-142.75;100.00;79563.50;5029615;28;20772;-67
2022/01/23 06:05:04;;;;;;;22.05;12.73;;;;;;;-142.75;100.00;79571.38;5029638;28;20044;-68
2022/01/23 06:07:29;;;;;;;19.73;11.95;;;;;;;-142.75;100.00;79567.44;5029155;28;20023;-68
2022/01/23 06:09:55;;;;;;;20.95;12.52;;;;;;;-142.75;100.00;79573.34;5029263;28;20130;-68
2022/01/23 06:12:20;;;;;;;18.45;11.48;;;;;;;-142.75;100.00;79587.13;5029343;28;20029;-67
2022/01/23 06:14:46;;;;;;;21.60;11.93;;;;;;;-142.75;100.00;79600.91;5029597;28;20534;-67
2022/01/23 06:17:11;;;;;;;26.05;12.82;;;;;;;-142.75;100.00;79595.00;5026797;28;20037;-67
2022/01/23 06:19:38;;;;;;;27.37;14.83;;;;;;;-142.75;100.00;79593.03;5029274;28;20084;-68
2022/01/23 06:22:04;;;;;;;28.13;14.40;;;;;;;-142.75;100.00;79598.94;5029311;28;20287;-68
2022/01/23 06:24:31;;;;;;;30.40;15.05;;;;;;;-142.75;100.00;79598.94;5029437;28;20506;-68
2022/01/23 06:26:58;;;;;;;27.60;13.93;;;;;;;-142.75;100.00;79591.06;5011558;28;20025;-68
2022/01/23 06:29:25;;;;;;;27.87;14.97;;;;;;;-142.75;100.00;79604.88;5028905;28;20029;-66
2022/01/23 06:31:53;;;;;;;28.33;13.87;;;;;;;-142.75;100.00;79614.72;5029477;28;20502;-67
2022/01/23 06:34:19;;;;;;;26.90;13.17;;;;;;;-142.75;100.00;79626.53;5029228;28;20025;-67
2022/01/23 06:36:45;;;;;;;27.40;13.63;;;;;;;-142.75;100.00;79628.50;5029346;28;20031;-67
2022/01/23 06:39:13;;;;;;;26.67;13.63;;;;;;;-142.75;100.00;79636.38;5029327;28;20099;-68
2022/01/23 06:41:39;;;;;;;23.43;12.70;;;;;;;-142.75;100.00;79642.28;5011160;28;20029;-68
2022/01/23 06:44:05;;;;;;;24.80;13.82;;;;;;;-142.75;100.00;79642.28;5028684;28;20126;-68
2022/01/23 06:46:31;;;;;;;;;;;;;;;-142.75;100.00;79642.28;5029619;28;20152;-67
2022/01/23 06:48:57;;;;;;;27.33;14.60;;;;;;;-142.75;100.00;79650.16;5028747;28;19919;-68
2022/01/23 06:51:23;;;;;;;25.63;14.65;;;;;;;-142.75;100.00;79654.13;5029189;28;20025;-67
2022/01/23 06:53:48;;;;;;;25.63;15.30;;;;;;;-142.75;100.00;79652.13;5038701;23;20041;-69
2022/01/23 06:56:14;;;;;;;26.48;13.20;;;;;;;-142.75;100.00;79654.13;5047480;28;20379;-69
2022/01/23 06:58:39;;;;;;;27.40;13.45;;;;;;;-142.75;100.00;79648.19;5047815;28;20509;-69
2022/01/23 07:01:07;;;;;;;24.55;13.38;;;;;;;-142.75;100.00;79650.16;5062293;28;20064;-68
2022/01/23 07:03:35;;;;;;;24.40;14.83;;;;;;;-142.75;100.00;79654.13;5074515;28;20034;-69
2022/01/23 07:06:01;;;;;;;22.23;13.83;;;;;;;-142.75;100.00;79660.03;5089047;28;20098;-69
2022/01/23 07:08:27;;;;;;;27.80;14.25;;;;;;;-142.75;100.00;79654.13;5089329;28;20135;-68
2022/01/23 07:10:52;;;;;;;25.52;13.23;;;;;;;-142.75;100.00;79658.06;5070716;28;20022;-69
2022/01/23 07:13:17;;;;;;;25.88;13.73;;;;;;;-142.75;100.00;79658.06;5088909;28;20024;-69
2022/01/23 07:15:42;;;;;;;23.75;14.05;;;;;;;-142.75;100.00;79677.75;5086790;28;20547;-68
2022/01/23 07:18:08;;;;;;;23.90;13.82;;;;;;;-142.75;100.00;79665.94;5069399;28;20020;-69
2022/01/23 07:20:33;;;;;;;25.30;13.75;;;;;;;-142.75;100.00;79671.84;5072554;28;20098;-70
2022/01/23 07:22:58;;;;;;;24.30;13.55;;;;;;;-142.75;100.00;79663.97;5072410;28;20030;-69
2022/01/23 07:25:24;;;;;;;20.77;13.10;;;;;;;-142.75;100.00;79673.81;5054806;28;20027;-68
2022/01/23 07:27:53;;;;;;;24.80;13.73;;;;;;;-142.75;100.00;79669.88;5072318;28;20114;-68
2022/01/23 07:30:35;;;;;;;30.77;14.50;;;;;;;-142.75;100.00;79669.88;5072351;28;20021;-68
2022/01/23 07:33:01;;;;;;;27.37;14.60;;;;;;;-142.75;100.00;79669.88;5071208;28;20032;-68
2022/01/23 07:35:26;;;;;;;28.50;14.65;;;;;;;-142.75;100.00;79662.00;5072231;28;20482;-68
2022/01/23 07:37:51;;;;;;;25.10;13.93;;;;;;;-142.75;100.00;79665.94;5072468;28;20085;-68
2022/01/23 07:40:19;;;;;;;26.15;14.02;;;;;;;-142.75;100.00;79665.94;5070757;28;20466;-68
2022/01/23 07:42:44;;;;;;;25.30;14.40;;;;;;;-142.75;100.00;79665.94;5072151;28;20081;-69
2022/01/23 07:45:09;;;;;;;27.50;14.03;;;;;;;-142.75;100.00;79656.09;5071343;28;20645;-68
2022/01/23 07:47:35;;;;;;;24.42;13.73;;;;;;;-142.75;100.00;79648.19;5053875;28;20274;-68
2022/01/23 07:50:02;;;;;;;26.87;13.00;;;;;;;-142.75;100.00;79644.25;5071745;28;20055;-68
2022/01/23 07:52:30;;;;;;;26.33;14.67;;;;;;;-142.75;100.00;79654.13;5072058;28;20273;-68
2022/01/23 07:54:56;;;;;;;25.50;13.57;;;;;;;-142.75;100.00;79654.13;5071939;28;20031;-68
2022/01/23 07:57:21;;;;;;;27.58;14.73;;;;;;;-142.75;100.00;79671.84;5071895;28;20024;-68
2022/01/23 07:59:47;;;;;;;26.00;14.68;;;;;;;-142.75;100.00;79673.81;5071437;28;20043;-68
2022/01/23 08:02:13;;;;;;;23.73;14.52;;;;;;;-142.75;100.00;79673.81;5071787;28;20103;-68
2022/01/23 08:04:38;;;;;;;30.77;15.07;;;;;;;-142.75;100.00;79673.81;5053946;28;20029;-68
2022/01/23 08:07:13;;;;;;;32.53;15.10;;;;;;;-142.75;100.00;79685.63;5071856;28;20103;-68
2022/01/23 08:09:38;;;;;;;28.90;15.57;;;;;;;-142.75;100.00;79677.75;5071725;28;20028;-68
2022/01/23 08:12:04;;;;;;;29.25;15.77;;;;;;;-142.75;100.00;79673.81;5071674;28;20070;-68
2022/01/23 08:14:30;;;;;;;;;;;;;;;-142.75;100.00;79671.84;5071828;28;20085;-68
2022/01/23 08:16:55;;;;;;;25.20;14.27;;;;;;;-142.75;100.00;79663.97;5071550;28;19912;-68
2022/01/23 08:19:21;;;;;;;27.77;15.13;;;;;;;-142.75;100.00;79654.13;5071039;28;20021;-68
2022/01/23 08:21:46;;;;;;;29.50;15.80;;;;;;;-142.75;100.00;79662.00;5071363;28;20047;-68
2022/01/23 08:24:11;;;;;;;29.65;15.95;;;;;;;-142.75;100.00;79671.84;5071376;28;20025;-69
2022/01/23 08:26:37;;;;;;;31.83;15.20;;;;;;;-142.75;100.00;79669.88;5071355;28;20445;-69
2022/01/23 08:29:05;;;;;;;29.47;15.43;;;;;;;-142.75;100.00;79673.81;5070554;28;20768;-68
2022/01/23 08:31:30;;;;;;;26.90;14.80;;;;;;;-142.75;100.00;79673.81;5070662;28;20489;-68
2022/01/23 08:33:55;;;;;;;31.35;16.15;;;;;;;-142.75;100.00;79675.78;5069718;28;20035;-68
2022/01/23 08:36:21;;;;;;;28.73;16.43;;;;;;;-142.75;100.00;79671.84;5071022;28;20020;-69
2022/01/23 08:38:46;;;;;;;30.60;16.53;;;;;;;-142.75;100.00;79669.88;5071245;28;20640;-69
2022/01/23 08:43:37;;;;;;;34.17;17.33;;;;;;;-142.75;100.00;79669.88;5070241;28;20032;-69
2022/01/23 08:46:03;;;;;;;30.10;15.43;;;;;;;-142.75;100.00;79669.88;5070763;28;20016;-68
2022/01/23 08:48:28;;;;;;;28.75;15.68;;;;;;;-142.75;100.00;79662.00;5070643;28;20020;-68
2022/01/23 08:50:53;;;;;;;25.05;15.15;;;;;;;-142.75;100.00;79654.13;5070805;28;20062;-68
2022/01/23 08:53:19;;;;;;;29.80;16.03;;;;;;;-142.75;100.00;79646.22;5070588;28;20500;-68
2022/01/23 08:55:45;;;;;;;29.70;16.48;;;;;;;-142.75;100.00;79642.28;5069522;28;20271;-68
2022/01/23 08:58:11;;;;;;;32.45;16.55;;;;;;;-142.75;100.00;79640.31;5070369;28;20363;-68
2022/01/23 09:00:36;;;;;;;31.27;16.63;;;;;;;-142.75;100.00;79646.22;5070598;28;20552;-69
2022/01/23 09:03:02;;;;;;;30.67;16.35;;;;;;;-142.75;100.00;79658.06;5070376;28;20054;-69
2022/01/23 09:05:27;;;;;;;31.25;16.15;;;;;;;-142.75;100.00;79667.91;5070589;28;20107;-68
2022/01/23 09:07:53;;;;;;;31.98;16.88;;;;;;;-142.75;100.00;79660.03;5070595;28;20028;-68
2022/01/23 09:10:26;;;;;;;30.40;16.73;;;;;;;-142.75;100.00;79665.94;5070020;28;20955;-68
2022/01/23 09:15:54;;;;;;;30.13;16.97;;;;;;;-142.75;100.00;79669.88;5007631;28;20044;-69
2022/01/23 09:18:19;;;;;;;32.90;16.27;;;;;;;-142.75;100.00;79669.88;5056031;28;20033;-68
2022/01/23 09:20:44;;;;;;;34.50;18.10;;;;;;;-142.75;100.00;79673.81;5069594;28;20348;-69
2022/01/23 09:23:10;;;;;;;37.27;18.37;;;;;;;-142.75;100.00;79665.94;5077905;28;20042;-68
2022/01/23 09:25:35;;;;;;;35.70;18.60;;;;;;;-142.75;100.00;79663.97;5084226;28;20275;-69
2022/01/23 09:28:05;;;;;;;38.17;18.27;;;;;;;-142.75;100.00;79658.06;5074058;28;20274;-66
2022/01/23 09:30:35;;;;;;;33.30;17.40;;;;;;;-142.75;100.00;79652.13;5078110;28;20031;-68
2022/01/23 09:33:01;;;;;;;33.80;17.33;;;;;;;-142.75;100.00;79658.06;5089453;28;20092;-68
2022/01/23 09:35:26;;;;;;;33.90;19.08;;;;;;;-142.75;100.00;79652.13;5089916;28;20528;-67
2022/01/23 09:37:52;;;;;;;32.65;16.98;;;;;;;-142.75;100.00;79650.16;5089491;28;20028;-68
2022/01/23 09:40:17;;;;;;;34.35;19.77;;;;;;;-142.75;100.00;79650.16;5076808;28;20028;-69
2022/01/23 09:42:49;;;;;;;32.35;17.65;;;;;;;-142.75;100.00;79663.97;5088622;28;20024;-70
2022/01/23 09:45:14;;;;;;;32.53;18.03;;;;;;;-142.75;100.00;79658.06;5081829;28;20029;-69
2022/01/23 09:47:40;;;;;;;33.28;19.23;;;;;;;-142.75;100.00;79662.00;5076003;28;20028;-69
2022/01/23 09:50:07;;;;;;;;;;;;;;;-142.75;100.00;79669.88;5065231;28;20024;-67
2022/01/23 09:52:35;;;;;;;33.20;17.92;;;;;;;-142.75;100.00;79662.00;5061862;28;19920;-68
2022/01/23 09:55:07;;;;;;;35.00;18.67;;;;;;;-142.75;100.00;79669.88;5079630;28;20024;-69
2022/01/23 09:57:36;;;;;;;32.33;19.10;;;;;;;-142.75;100.00;79685.63;5075649;28;20546;-69
2022/01/23 10:00:05;;;;;;;38.77;19.23;;;;;;;-142.75;100.00;79687.59;5087916;28;20020;-69
2022/01/23 10:02:31;;;;;;;33.10;17.83;;;;;;;-142.75;100.00;79689.56;5074727;28;20027;-69
2022/01/23 10:04:56;;;;;;;32.97;18.35;;;;;;;-142.75;100.00;79689.56;5070151;28;20023;-69
2022/01/23 10:07:22;;;;;;;32.28;18.73;;;;;;;-142.75;100.00;79689.56;5084463;28;20032;-69
2022/01/23 10:09:54;;;;;;;42.20;20.55;;;;;;;-142.75;100.00;79685.63;5080933;28;20028;-69
2022/01/23 10:12:23;;;;;;;36.97;20.47;;;;;;;-142.75;100.00;79675.78;5079646;28;20081;-68
2022/01/23 10:14:49;;;;;;;34.47;17.90;;;;;;;-142.75;100.00;79654.13;5087974;28;20024;-69
2022/01/23 10:17:14;;;;;;;33.97;19.95;;;;;;;-142.75;100.00;79658.06;5080453;28;20393;-68
2022/01/23 10:19:40;;;;;;;32.07;17.73;;;;;;;-142.75;100.00;79660.03;5062063;28;20028;-68
2022/01/23 10:22:06;;;;;;;;;;;;;;;-142.75;100.00;79660.03;5088415;28;20024;-69
2022/01/23 10:24:32;;;;;;;34.53;18.70;;;;;;;-142.75;100.00;79658.06;5087769;28;20377;-69
2022/01/23 10:26:59;;;;;;;37.72;19.58;;;;;;;-142.75;100.00;79656.09;5088260;28;20016;-68
2022/01/23 10:29:34;;;;;;;38.43;20.23;;;;;;;-142.75;100.00;79663.97;5088492;28;20032;-69
2022/01/23 10:32:02;;;;;;;36.87;18.97;;;;;;;-142.75;100.00;79658.06;5070917;28;20450;-69
2022/01/23 10:34:51;;;;;;;33.03;18.00;;;;;;;-142.75;100.00;79654.13;5070861;28;20028;-68
2022/01/23 10:37:37;;;;;;;34.07;19.00;;;;;;;-142.75;100.00;79644.25;5088743;28;20020;-69
2022/01/23 10:40:20;;;;;;;36.13;19.43;;;;;;;-142.75;100.00;79624.56;5089260;28;20032;-69
2022/01/23 10:42:54;;;;;;;38.20;18.97;;;;;;;-142.75;100.00;79630.47;5089754;28;20477;-69
2022/01/23 10:48:24;;;;;;;37.42;20.05;;;;;;;-142.75;100.00;79622.59;5079935;28;20197;-69
2022/01/23 10:50:51;;;;;;;41.17;21.57;;;;;;;-142.75;100.00;79612.75;5070401;28;20025;-70
2022/01/23 10:53:16;;;;;;;33.53;18.30;;;;;;;-142.75;100.00;79630.47;5053302;28;20482;-69
2022/01/23 10:55:43;;;;;;;33.03;18.92;;;;;;;-142.75;100.00;79630.47;5074738;28;20099;-69
2022/01/23 10:58:19;;;;;;;40.60;20.83;;;;;;;-142.75;100.00;79608.81;5074189;28;20032;-69
2022/01/23 11:00:44;;;;;;;58.10;26.97;;;;;;;-142.75;100.00;79612.75;5056215;28;20103;-69
2022/01/23 11:03:23;;;;;;;45.13;22.67;;;;;;;-142.75;100.00;79626.53;5073982;28;20108;-69
2022/01/23 11:05:51;;;;;;;35.37;19.00;;;;;;;-142.75;100.00;79618.66;5056144;28;20437;-69
2022/01/23 11:08:29;;;;;;;36.67;18.97;;;;;;;-142.75;100.00;79620.63;5055781;28;20020;-68
2022/01/23 11:11:00;;;;;;;33.77;18.47;;;;;;;-142.75;100.00;79614.72;5056035;28;20498;-69
2022/01/23 11:19:21;;;;;;;36.03;18.50;;;;;;;-142.75;100.00;79577.28;5073752;28;20048;-69
2022/01/23 11:21:47;;;;;;;34.27;18.00;;;;;;;-142.75;100.00;79563.50;5073659;28;20478;-70
2022/01/23 11:24:14;;;;;;;34.08;19.30;;;;;;;-142.75;100.00;79559.56;5073703;28;20032;-69
2022/01/23 11:26:39;;;;;;;;;;;;;;;-142.75;100.00;79567.44;5074103;28;20503;-69
2022/01/23 11:29:13;;;;;;;33.67;17.83;;;;;;;-142.75;100.00;79567.44;5073332;28;19954;-69
2022/01/23 11:31:40;;;;;;;30.83;17.23;;;;;;;-142.75;100.00;79563.50;5073947;28;20467;-69
2022/01/23 11:34:11;;;;;;;39.10;18.63;;;;;;;-142.75;100.00;79559.56;5073348;28;20394;-69
2022/01/23 11:36:37;;;;;;;32.10;17.23;;;;;;;-142.75;100.00;79555.63;5073889;28;20428;-69
2022/01/23 11:39:12;;;;;;;31.40;18.52;;;;;;;-142.75;100.00;79551.69;5073196;28;20103;-70
2022/01/23 11:56:26;;;;;;;29.92;17.00;;;;;;;-142.75;100.00;79539.84;5085396;28;20626;-68
2022/01/23 11:58:54;;;;;;;30.70;17.93;;;;;;;-142.75;100.00;79535.91;5074938;28;20032;-68
2022/01/23 12:01:24;;;;;;;34.22;17.98;;;;;;;-142.75;100.00;79531.97;5075071;28;20063;-67
2022/01/23 12:04:20;;;;;;;30.30;17.58;;;;;;;-142.75;100.00;79524.09;5074760;28;20027;-67
2022/01/23 12:07:17;;;;;;;33.72;17.48;;;;;;;-142.75;100.00;79533.94;5092477;28;20389;-67
2022/01/23 12:10:24;;;;;;;33.50;17.75;;;;;;;-142.75;100.00;79524.09;5092931;28;20026;-69
2022/01/23 12:12:52;;;;;;;30.83;17.00;;;;;;;-142.75;100.00;79516.22;5093008;28;20056;-67
2022/01/23 12:18:22;;;;;;;29.40;16.87;;;;;;;-142.75;100.00;79504.41;5092658;28;20084;-68
2022/01/23 12:20:50;;;;;;;29.43;16.50;;;;;;;-142.75;100.00;79510.31;5074652;28;20024;-68
2022/01/23 12:23:17;;;;;;;28.60;16.73;;;;;;;-142.75;100.00;79510.31;5092430;28;20022;-68
2022/01/23 12:25:42;;;;;;;29.60;16.97;;;;;;;-142.75;100.00;79492.56;5074622;28;20020;-68
2022/01/23 12:28:21;;;;;;;28.67;16.53;;;;;;;-142.75;100.00;79486.66;5074331;28;20518;-68
2022/01/23 12:30:49;;;;;;;31.47;16.57;;;;;;;-142.75;100.00;79476.81;5092607;28;20024;-68
2022/01/23 12:33:30;;;;;;;33.07;17.20;;;;;;;-142.75;100.00;79474.84;5092564;28;20028;-68
2022/01/23 12:36:12;;;;;;;28.43;15.87;;;;;;;-142.75;100.00;79468.94;5092628;28;20036;-68
2022/01/23 12:38:47;;;;;;;24.37;14.53;;;;;;;-142.75;100.00;79484.69;5092379;28;20028;-68
2022/01/23 12:41:23;;;;;;;24.10;14.43;;;;;;;-142.75;100.00;79478.78;5092343;28;20062;-68
2022/01/23 12:44:06;;;;;;;28.02;14.93;;;;;;;-142.75;100.00;79500.47;5075517;28;20031;-68
2022/01/23 12:46:36;;;;;;;27.13;15.93;;;;;;;-142.75;100.00;79484.69;5070778;28;20511;-68
2022/01/23 12:49:22;;;;;;;29.33;16.37;;;;;;;-142.75;100.00;79498.47;5071975;28;20024;-68
2022/01/23 12:52:10;;;;;;;22.85;12.43;;;;;;;-142.75;100.00;79500.47;5071875;28;20070;-67
2022/01/23 12:54:47;;;;;;;29.90;16.47;;;;;;;-142.75;100.00;79492.56;5041648;22;20046;-67
2022/01/23 12:57:18;;;;;;;28.63;16.40;;;;;;;-142.75;100.00;79488.63;5030548;28;20070;-66
2022/01/23 12:59:55;;;;;;;28.73;15.67;;;;;;;-142.75;100.00;79484.69;5030411;28;20052;-68
2022/01/23 13:02:22;;;;;;;27.73;16.45;;;;;;;-142.75;100.00;79480.75;5030558;28;20051;-68
2022/01/23 13:04:50;;;;;;;26.87;15.60;;;;;;;-142.75;100.00;79476.81;5031995;28;20036;-68
2022/01/23 13:07:30;;;;;;;25.20;14.90;;;;;;;-142.75;100.00;79461.06;5031751;28;20021;-66
2022/01/23 13:10:09;;;;;;;25.47;16.17;;;;;;;-142.75;100.00;79470.91;5031558;28;20033;-66
2022/01/23 13:15:26;;;;;;;26.73;15.43;;;;;;;-142.75;100.00;79461.06;5031964;28;20057;-66
2022/01/23 13:18:13;;;;;;;24.17;15.10;;;;;;;-142.75;100.00;79441.34;5031300;28;20047;-65
2022/01/23 13:32:19;;;;;;;23.63;16.27;;;;;;;-142.75;100.00;79413.78;5031658;28;20121;-67
2022/01/23 13:35:04;;;;;;;25.93;15.67;;;;;;;-142.75;100.00;79419.69;5031158;28;20036;-66
2022/01/23 13:37:34;;;;;;;22.77;15.87;;;;;;;-142.75;100.00;79435.44;5031319;28;20021;-67
2022/01/23 13:40:06;;;;;;;23.50;15.97;;;;;;;-142.75;100.00;79427.56;5013301;28;20060;-67
2022/01/23 13:42:48;;;;;;;26.03;16.30;;;;;;;-142.75;100.00;79415.75;5031159;28;20021;-67
2022/01/23 14:02:33;;;;;;;22.17;15.47;;;;;;;-142.75;100.00;79411.81;5014707;28;20120;-68
2022/01/23 14:05:18;;;;;;;18.97;13.50;;;;;;;-142.75;100.00;79421.66;5013380;28;20147;-67
2022/01/23 14:07:50;;;;;;;23.10;14.27;;;;;;;-142.75;100.00;79417.72;5031059;28;20083;-68
2022/01/23 14:10:20;;;;;;;26.40;14.70;;;;;;;-142.75;100.00;79411.81;5013089;28;20021;-68
2022/01/23 14:12:48;;;;;;;23.73;14.77;;;;;;;-142.75;100.00;79421.66;5030749;28;20079;-68
2022/01/23 14:15:16;;;;;;;25.40;14.73;;;;;;;-142.75;100.00;79417.72;5012878;28;20033;-68
2022/01/23 14:17:42;;;;;;;22.90;15.07;;;;;;;-142.75;100.00;79413.78;5030614;28;20549;-68
2022/01/23 14:20:16;;;;;;;24.77;16.17;;;;;;;-142.75;100.00;79421.66;5012599;28;20509;-67